sensor_id;sensor_type;location;lat;lon;timestamp;P1;durP1;ratioP1;P2;durP2;ratioP2
45328;SDS011;72636;48.160;11.428;2023-12-14T00:01:12;1.07;;;0.77;;
45328;SDS011;72636;48.160;11.428;2023-12-14T00:06:06;2.25;;;0.80;;
45328;SDS011;72636;48.160;11.428;2023-12-14T00:08:36;0.95;;;0.73;;
45328;SDS011;72636;48.160;11.428;2023-12-14T00:11:08;1.37;;;1.03;;
45328;SDS011;72636;48.160;11.428;2023-12-14T00:13:35;1.58;;;1.30;;
45328;SDS011;72636;48.160;11.428;2023-12-14T00:16:01;1.77;;;1.05;;
45328;SDS011;72636;48.160;11.428;2023-12-14T00:18:27;1.75;;;1.00;;
45328;SDS011;72636;48.160;11.428;2023-12-14T00:20:53;1.10;;;1.00;;
45328;SDS011;72636;48.160;11.428;2023-12-14T00:23:19;2.83;;;0.90;;
45328;SDS011;72636;48.160;11.428;2023-12-14T00:25:45;1.40;;;1.30;;
45328;SDS011;72636;48.160;11.428;2023-12-14T00:28:11;2.13;;;1.10;;
45328;SDS011;72636;48.160;11.428;2023-12-14T00:30:37;1.10;;;1.05;;
45328;SDS011;72636;48.160;11.428;2023-12-14T00:33:03;2.13;;;1.07;;
45328;SDS011;72636;48.160;11.428;2023-12-14T00:35:28;1.13;;;1.03;;
45328;SDS011;72636;48.160;11.428;2023-12-14T00:37:54;2.87;;;1.47;;
45328;SDS011;72636;48.160;11.428;2023-12-14T00:40:20;2.30;;;1.33;;
45328;SDS011;72636;48.160;11.428;2023-12-14T00:42:45;4.03;;;1.23;;
45328;SDS011;72636;48.160;11.428;2023-12-14T00:45:11;1.83;;;1.23;;
45328;SDS011;72636;48.160;11.428;2023-12-14T00:47:37;1.67;;;1.35;;
45328;SDS011;72636;48.160;11.428;2023-12-14T00:50:02;2.27;;;1.33;;
45328;SDS011;72636;48.160;11.428;2023-12-14T00:52:28;3.45;;;1.30;;
45328;SDS011;72636;48.160;11.428;2023-12-14T00:54:54;1.87;;;1.40;;
45328;SDS011;72636;48.160;11.428;2023-12-14T00:57:20;2.67;;;1.30;;
45328;SDS011;72636;48.160;11.428;2023-12-14T00:59:45;3.40;;;1.60;;
45328;SDS011;72636;48.160;11.428;2023-12-14T01:02:11;2.43;;;1.37;;
45328;SDS011;72636;48.160;11.428;2023-12-14T01:04:37;3.03;;;1.50;;
45328;SDS011;72636;48.160;11.428;2023-12-14T01:07:03;1.20;;;1.10;;
45328;SDS011;72636;48.160;11.428;2023-12-14T01:09:29;2.15;;;1.35;;
45328;SDS011;72636;48.160;11.428;2023-12-14T01:11:54;1.13;;;1.00;;
45328;SDS011;72636;48.160;11.428;2023-12-14T01:14:20;2.47;;;1.20;;
45328;SDS011;72636;48.160;11.428;2023-12-14T01:16:46;1.17;;;0.90;;
45328;SDS011;72636;48.160;11.428;2023-12-14T01:19:12;0.98;;;0.82;;
45328;SDS011;72636;48.160;11.428;2023-12-14T01:21:37;0.75;;;0.73;;
45328;SDS011;72636;48.160;11.428;2023-12-14T01:24:03;0.80;;;0.80;;
45328;SDS011;72636;48.160;11.428;2023-12-14T01:26:29;3.20;;;1.02;;
45328;SDS011;72636;48.160;11.428;2023-12-14T01:28:55;0.67;;;0.67;;
45328;SDS011;72636;48.160;11.428;2023-12-14T01:31:20;0.73;;;0.63;;
45328;SDS011;72636;48.160;11.428;2023-12-14T01:33:49;0.57;;;0.57;;
45328;SDS011;72636;48.160;11.428;2023-12-14T01:36:22;0.80;;;0.80;;
45328;SDS011;72636;48.160;11.428;2023-12-14T01:38:48;0.68;;;0.68;;
45328;SDS011;72636;48.160;11.428;2023-12-14T01:41:14;1.00;;;0.80;;
45328;SDS011;72636;48.160;11.428;2023-12-14T01:43:40;1.17;;;0.70;;
45328;SDS011;72636;48.160;11.428;2023-12-14T01:46:05;1.07;;;0.90;;
45328;SDS011;72636;48.160;11.428;2023-12-14T01:48:31;1.30;;;0.63;;
45328;SDS011;72636;48.160;11.428;2023-12-14T01:50:57;1.70;;;0.93;;
45328;SDS011;72636;48.160;11.428;2023-12-14T01:53:22;2.70;;;0.70;;
45328;SDS011;72636;48.160;11.428;2023-12-14T01:55:48;1.27;;;0.60;;
45328;SDS011;72636;48.160;11.428;2023-12-14T01:58:13;0.63;;;0.60;;
45328;SDS011;72636;48.160;11.428;2023-12-14T02:00:41;1.03;;;0.60;;
45328;SDS011;72636;48.160;11.428;2023-12-14T02:03:15;0.77;;;0.55;;
45328;SDS011;72636;48.160;11.428;2023-12-14T02:05:41;0.80;;;0.80;;
45328;SDS011;72636;48.160;11.428;2023-12-14T02:08:07;2.20;;;1.05;;
45328;SDS011;72636;48.160;11.428;2023-12-14T02:10:33;1.85;;;1.20;;
45328;SDS011;72636;48.160;11.428;2023-12-14T02:13:01;1.10;;;0.98;;
45328;SDS011;72636;48.160;11.428;2023-12-14T02:15:27;1.77;;;1.00;;
45328;SDS011;72636;48.160;11.428;2023-12-14T02:17:53;1.20;;;1.10;;
45328;SDS011;72636;48.160;11.428;2023-12-14T02:20:19;1.10;;;1.03;;
45328;SDS011;72636;48.160;11.428;2023-12-14T02:22:51;1.27;;;1.13;;
45328;SDS011;72636;48.160;11.428;2023-12-14T02:25:20;1.40;;;1.27;;
45328;SDS011;72636;48.160;11.428;2023-12-14T02:27:48;1.92;;;1.30;;
45328;SDS011;72636;48.160;11.428;2023-12-14T02:30:17;1.27;;;1.17;;
45328;SDS011;72636;48.160;11.428;2023-12-14T02:32:43;1.50;;;1.40;;
45328;SDS011;72636;48.160;11.428;2023-12-14T02:35:09;1.38;;;1.20;;
45328;SDS011;72636;48.160;11.428;2023-12-14T02:37:35;1.65;;;1.20;;
45328;SDS011;72636;48.160;11.428;2023-12-14T02:40:10;1.40;;;1.30;;
45328;SDS011;72636;48.160;11.428;2023-12-14T02:42:36;1.60;;;1.50;;
45328;SDS011;72636;48.160;11.428;2023-12-14T02:45:02;1.48;;;1.38;;
45328;SDS011;72636;48.160;11.428;2023-12-14T02:47:29;1.63;;;1.38;;
45328;SDS011;72636;48.160;11.428;2023-12-14T02:49:55;1.83;;;1.30;;
45328;SDS011;72636;48.160;11.428;2023-12-14T02:52:21;1.88;;;1.58;;
45328;SDS011;72636;48.160;11.428;2023-12-14T02:54:47;1.73;;;1.55;;
45328;SDS011;72636;48.160;11.428;2023-12-14T02:57:12;1.30;;;1.20;;
45328;SDS011;72636;48.160;11.428;2023-12-14T02:59:38;2.10;;;1.87;;
45328;SDS011;72636;48.160;11.428;2023-12-14T03:02:04;2.85;;;1.67;;
45328;SDS011;72636;48.160;11.428;2023-12-14T03:04:30;3.15;;;1.63;;
45328;SDS011;72636;48.160;11.428;2023-12-14T03:06:56;2.03;;;1.48;;
45328;SDS011;72636;48.160;11.428;2023-12-14T03:09:22;1.85;;;1.70;;
45328;SDS011;72636;48.160;11.428;2023-12-14T03:11:48;1.60;;;1.50;;
45328;SDS011;72636;48.160;11.428;2023-12-14T03:14:14;1.50;;;1.40;;
45328;SDS011;72636;48.160;11.428;2023-12-14T03:16:40;2.17;;;1.92;;
45328;SDS011;72636;48.160;11.428;2023-12-14T03:19:05;1.90;;;1.80;;
45328;SDS011;72636;48.160;11.428;2023-12-14T03:21:31;2.87;;;1.87;;
45328;SDS011;72636;48.160;11.428;2023-12-14T03:23:57;2.17;;;1.97;;
45328;SDS011;72636;48.160;11.428;2023-12-14T03:26:22;2.13;;;1.90;;
45328;SDS011;72636;48.160;11.428;2023-12-14T03:28:49;2.15;;;1.95;;
45328;SDS011;72636;48.160;11.428;2023-12-14T03:31:14;2.07;;;1.97;;
45328;SDS011;72636;48.160;11.428;2023-12-14T03:33:41;2.03;;;1.83;;
45328;SDS011;72636;48.160;11.428;2023-12-14T03:36:07;1.95;;;1.85;;
45328;SDS011;72636;48.160;11.428;2023-12-14T03:38:33;1.92;;;1.80;;
45328;SDS011;72636;48.160;11.428;2023-12-14T03:40:58;1.83;;;1.73;;
45328;SDS011;72636;48.160;11.428;2023-12-14T03:43:24;2.40;;;2.17;;
45328;SDS011;72636;48.160;11.428;2023-12-14T03:45:50;2.33;;;2.13;;
45328;SDS011;72636;48.160;11.428;2023-12-14T03:48:15;2.70;;;2.00;;
45328;SDS011;72636;48.160;11.428;2023-12-14T03:50:41;2.47;;;2.23;;
45328;SDS011;72636;48.160;11.428;2023-12-14T03:53:07;2.00;;;1.90;;
45328;SDS011;72636;48.160;11.428;2023-12-14T03:55:33;2.28;;;2.08;;
45328;SDS011;72636;48.160;11.428;2023-12-14T03:57:58;2.33;;;2.10;;
45328;SDS011;72636;48.160;11.428;2023-12-14T04:00:24;2.40;;;2.20;;
45328;SDS011;72636;48.160;11.428;2023-12-14T04:02:50;2.57;;;1.93;;
45328;SDS011;72636;48.160;11.428;2023-12-14T04:05:15;2.20;;;2.00;;
45328;SDS011;72636;48.160;11.428;2023-12-14T04:07:41;2.13;;;1.92;;
45328;SDS011;72636;48.160;11.428;2023-12-14T04:10:07;2.40;;;2.20;;
45328;SDS011;72636;48.160;11.428;2023-12-14T04:12:37;2.33;;;2.10;;
45328;SDS011;72636;48.160;11.428;2023-12-14T04:15:03;1.80;;;1.50;;
45328;SDS011;72636;48.160;11.428;2023-12-14T04:17:30;3.13;;;2.00;;
45328;SDS011;72636;48.160;11.428;2023-12-14T04:19:56;2.63;;;2.17;;
45328;SDS011;72636;48.160;11.428;2023-12-14T04:22:22;2.20;;;2.00;;
45328;SDS011;72636;48.160;11.428;2023-12-14T04:24:48;2.30;;;2.10;;
45328;SDS011;72636;48.160;11.428;2023-12-14T04:29:40;2.92;;;2.10;;
45328;SDS011;72636;48.160;11.428;2023-12-14T04:32:06;2.10;;;1.90;;
45328;SDS011;72636;48.160;11.428;2023-12-14T04:34:32;3.67;;;1.95;;
45328;SDS011;72636;48.160;11.428;2023-12-14T04:36:58;1.57;;;1.47;;
45328;SDS011;72636;48.160;11.428;2023-12-14T04:39:24;1.97;;;1.63;;
45328;SDS011;72636;48.160;11.428;2023-12-14T04:41:50;1.60;;;1.50;;
45328;SDS011;72636;48.160;11.428;2023-12-14T04:44:16;1.98;;;1.70;;
45328;SDS011;72636;48.160;11.428;2023-12-14T04:46:41;1.58;;;1.48;;
45328;SDS011;72636;48.160;11.428;2023-12-14T04:49:08;2.38;;;1.33;;
45328;SDS011;72636;48.160;11.428;2023-12-14T04:51:34;3.07;;;2.07;;
45328;SDS011;72636;48.160;11.428;2023-12-14T04:54:00;3.77;;;2.30;;
45328;SDS011;72636;48.160;11.428;2023-12-14T04:56:25;1.80;;;1.70;;
45328;SDS011;72636;48.160;11.428;2023-12-14T04:58:51;3.93;;;1.60;;
45328;SDS011;72636;48.160;11.428;2023-12-14T05:01:17;2.58;;;1.10;;
45328;SDS011;72636;48.160;11.428;2023-12-14T05:03:42;1.27;;;1.00;;
45328;SDS011;72636;48.160;11.428;2023-12-14T05:06:08;1.40;;;1.30;;
45328;SDS011;72636;48.160;11.428;2023-12-14T05:08:34;1.17;;;0.93;;
45328;SDS011;72636;48.160;11.428;2023-12-14T05:11:00;5.80;;;1.08;;
45328;SDS011;72636;48.160;11.428;2023-12-14T05:13:26;1.37;;;1.27;;
45328;SDS011;72636;48.160;11.428;2023-12-14T05:15:51;1.80;;;1.00;;
45328;SDS011;72636;48.160;11.428;2023-12-14T05:18:17;1.83;;;1.00;;
45328;SDS011;72636;48.160;11.428;2023-12-14T05:20:43;2.75;;;1.00;;
45328;SDS011;72636;48.160;11.428;2023-12-14T05:23:10;1.48;;;1.08;;
45328;SDS011;72636;48.160;11.428;2023-12-14T05:25:39;1.42;;;1.20;;
45328;SDS011;72636;48.160;11.428;2023-12-14T05:28:05;2.00;;;1.33;;
45328;SDS011;72636;48.160;11.428;2023-12-14T05:30:30;1.97;;;1.30;;
45328;SDS011;72636;48.160;11.428;2023-12-14T05:32:56;1.27;;;1.17;;
45328;SDS011;72636;48.160;11.428;2023-12-14T05:35:22;2.00;;;1.63;;
45328;SDS011;72636;48.160;11.428;2023-12-14T05:37:47;2.17;;;1.60;;
45328;SDS011;72636;48.160;11.428;2023-12-14T05:40:13;2.17;;;1.50;;
45328;SDS011;72636;48.160;11.428;2023-12-14T05:42:39;3.25;;;1.55;;
45328;SDS011;72636;48.160;11.428;2023-12-14T05:45:05;2.47;;;1.67;;
45328;SDS011;72636;48.160;11.428;2023-12-14T05:47:31;2.10;;;1.90;;
45328;SDS011;72636;48.160;11.428;2023-12-14T05:49:59;2.70;;;1.90;;
45328;SDS011;72636;48.160;11.428;2023-12-14T05:52:25;1.77;;;1.67;;
45328;SDS011;72636;48.160;11.428;2023-12-14T05:54:50;2.73;;;1.97;;
45328;SDS011;72636;48.160;11.428;2023-12-14T05:57:16;2.27;;;2.07;;
45328;SDS011;72636;48.160;11.428;2023-12-14T05:59:42;2.40;;;2.20;;
45328;SDS011;72636;48.160;11.428;2023-12-14T06:02:07;4.40;;;2.57;;
45328;SDS011;72636;48.160;11.428;2023-12-14T06:04:33;4.87;;;2.97;;
45328;SDS011;72636;48.160;11.428;2023-12-14T06:06:59;5.90;;;2.70;;
45328;SDS011;72636;48.160;11.428;2023-12-14T06:09:24;3.40;;;2.63;;
45328;SDS011;72636;48.160;11.428;2023-12-14T06:11:58;4.13;;;2.88;;
45328;SDS011;72636;48.160;11.428;2023-12-14T06:14:27;5.40;;;3.50;;
45328;SDS011;72636;48.160;11.428;2023-12-14T06:16:53;4.20;;;3.05;;
45328;SDS011;72636;48.160;11.428;2023-12-14T06:19:19;4.35;;;3.47;;
45328;SDS011;72636;48.160;11.428;2023-12-14T06:21:45;7.40;;;3.40;;
45328;SDS011;72636;48.160;11.428;2023-12-14T06:24:11;5.40;;;3.40;;
45328;SDS011;72636;48.160;11.428;2023-12-14T06:26:40;7.87;;;3.80;;
45328;SDS011;72636;48.160;11.428;2023-12-14T06:29:08;3.72;;;3.20;;
45328;SDS011;72636;48.160;11.428;2023-12-14T06:31:34;4.97;;;3.80;;
45328;SDS011;72636;48.160;11.428;2023-12-14T06:33:59;5.27;;;3.47;;
45328;SDS011;72636;48.160;11.428;2023-12-14T06:36:28;5.75;;;4.03;;
45328;SDS011;72636;48.160;11.428;2023-12-14T06:38:54;9.52;;;4.10;;
45328;SDS011;72636;48.160;11.428;2023-12-14T06:41:23;7.03;;;3.97;;
45328;SDS011;72636;48.160;11.428;2023-12-14T06:43:50;5.60;;;4.28;;
45328;SDS011;72636;48.160;11.428;2023-12-14T06:46:16;5.57;;;4.05;;
45328;SDS011;72636;48.160;11.428;2023-12-14T06:48:41;4.95;;;3.75;;
45328;SDS011;72636;48.160;11.428;2023-12-14T06:51:07;5.37;;;3.73;;
45328;SDS011;72636;48.160;11.428;2023-12-14T06:53:38;5.93;;;3.85;;
45328;SDS011;72636;48.160;11.428;2023-12-14T06:56:08;5.03;;;3.95;;
45328;SDS011;72636;48.160;11.428;2023-12-14T06:58:36;5.13;;;3.58;;
45328;SDS011;72636;48.160;11.428;2023-12-14T07:01:05;5.60;;;3.60;;
45328;SDS011;72636;48.160;11.428;2023-12-14T07:03:31;6.88;;;3.67;;
45328;SDS011;72636;48.160;11.428;2023-12-14T07:05:57;4.75;;;3.63;;
45328;SDS011;72636;48.160;11.428;2023-12-14T07:08:23;7.45;;;3.80;;
45328;SDS011;72636;48.160;11.428;2023-12-14T07:10:49;5.28;;;3.80;;
45328;SDS011;72636;48.160;11.428;2023-12-14T07:13:15;6.43;;;3.90;;
45328;SDS011;72636;48.160;11.428;2023-12-14T07:15:41;7.20;;;4.10;;
45328;SDS011;72636;48.160;11.428;2023-12-14T07:18:06;7.10;;;4.37;;
45328;SDS011;72636;48.160;11.428;2023-12-14T07:20:32;4.97;;;3.60;;
45328;SDS011;72636;48.160;11.428;2023-12-14T07:22:58;5.15;;;4.03;;
45328;SDS011;72636;48.160;11.428;2023-12-14T07:25:24;8.00;;;4.57;;
45328;SDS011;72636;48.160;11.428;2023-12-14T07:27:49;6.37;;;4.63;;
45328;SDS011;72636;48.160;11.428;2023-12-14T07:30:15;8.20;;;4.35;;
45328;SDS011;72636;48.160;11.428;2023-12-14T07:32:41;7.80;;;4.95;;
45328;SDS011;72636;48.160;11.428;2023-12-14T07:35:07;7.20;;;5.15;;
45328;SDS011;72636;48.160;11.428;2023-12-14T07:37:34;6.78;;;4.97;;
45328;SDS011;72636;48.160;11.428;2023-12-14T07:39:59;8.87;;;5.67;;
45328;SDS011;72636;48.160;11.428;2023-12-14T07:42:25;9.57;;;5.83;;
45328;SDS011;72636;48.160;11.428;2023-12-14T07:44:51;9.87;;;6.03;;
45328;SDS011;72636;48.160;11.428;2023-12-14T07:47:16;10.33;;;6.20;;
45328;SDS011;72636;48.160;11.428;2023-12-14T07:49:42;8.37;;;6.10;;
45328;SDS011;72636;48.160;11.428;2023-12-14T07:52:08;8.77;;;6.97;;
45328;SDS011;72636;48.160;11.428;2023-12-14T07:54:34;8.73;;;6.70;;
45328;SDS011;72636;48.160;11.428;2023-12-14T07:57:00;10.48;;;6.70;;
45328;SDS011;72636;48.160;11.428;2023-12-14T07:59:26;9.80;;;7.60;;
45328;SDS011;72636;48.160;11.428;2023-12-14T08:01:52;9.47;;;7.50;;
45328;SDS011;72636;48.160;11.428;2023-12-14T08:04:17;9.40;;;7.47;;
45328;SDS011;72636;48.160;11.428;2023-12-14T08:06:43;12.32;;;8.18;;
45328;SDS011;72636;48.160;11.428;2023-12-14T08:09:09;11.23;;;9.20;;
45328;SDS011;72636;48.160;11.428;2023-12-14T08:11:35;10.20;;;8.43;;
45328;SDS011;72636;48.160;11.428;2023-12-14T08:14:00;10.52;;;8.55;;
45328;SDS011;72636;48.160;11.428;2023-12-14T08:16:27;14.27;;;8.93;;
45328;SDS011;72636;48.160;11.428;2023-12-14T08:18:53;10.55;;;8.77;;
45328;SDS011;72636;48.160;11.428;2023-12-14T08:21:19;14.60;;;9.73;;
45328;SDS011;72636;48.160;11.428;2023-12-14T08:23:45;15.00;;;9.63;;
45328;SDS011;72636;48.160;11.428;2023-12-14T08:26:10;14.10;;;8.93;;
45328;SDS011;72636;48.160;11.428;2023-12-14T08:28:38;13.13;;;9.10;;
45328;SDS011;72636;48.160;11.428;2023-12-14T08:31:04;12.02;;;8.65;;
45328;SDS011;72636;48.160;11.428;2023-12-14T08:33:30;12.73;;;8.77;;
45328;SDS011;72636;48.160;11.428;2023-12-14T08:35:56;8.55;;;7.65;;
45328;SDS011;72636;48.160;11.428;2023-12-14T08:38:22;10.45;;;8.60;;
45328;SDS011;72636;48.160;11.428;2023-12-14T08:40:47;11.27;;;8.20;;
45328;SDS011;72636;48.160;11.428;2023-12-14T08:43:13;10.07;;;7.90;;
45328;SDS011;72636;48.160;11.428;2023-12-14T08:45:39;8.40;;;7.43;;
45328;SDS011;72636;48.160;11.428;2023-12-14T08:48:05;10.75;;;6.60;;
45328;SDS011;72636;48.160;11.428;2023-12-14T08:50:31;8.25;;;6.10;;
45328;SDS011;72636;48.160;11.428;2023-12-14T08:52:57;10.65;;;7.55;;
45328;SDS011;72636;48.160;11.428;2023-12-14T08:55:24;8.55;;;6.68;;
45328;SDS011;72636;48.160;11.428;2023-12-14T08:57:50;10.30;;;6.95;;
45328;SDS011;72636;48.160;11.428;2023-12-14T09:00:16;8.03;;;6.33;;
45328;SDS011;72636;48.160;11.428;2023-12-14T09:05:10;7.50;;;6.20;;
45328;SDS011;72636;48.160;11.428;2023-12-14T09:07:39;9.02;;;6.68;;
45328;SDS011;72636;48.160;11.428;2023-12-14T09:10:05;11.73;;;7.53;;
45328;SDS011;72636;48.160;11.428;2023-12-14T09:12:32;12.60;;;7.57;;
45328;SDS011;72636;48.160;11.428;2023-12-14T09:14:59;8.85;;;6.85;;
45328;SDS011;72636;48.160;11.428;2023-12-14T09:17:25;8.18;;;7.00;;
45328;SDS011;72636;48.160;11.428;2023-12-14T09:19:56;7.47;;;6.63;;
45328;SDS011;72636;48.160;11.428;2023-12-14T09:22:22;7.43;;;6.63;;
45328;SDS011;72636;48.160;11.428;2023-12-14T09:24:48;7.83;;;5.67;;
45328;SDS011;72636;48.160;11.428;2023-12-14T09:27:13;8.33;;;5.67;;
45328;SDS011;72636;48.160;11.428;2023-12-14T09:29:40;7.13;;;5.93;;
45328;SDS011;72636;48.160;11.428;2023-12-14T09:32:07;8.53;;;6.80;;
45328;SDS011;72636;48.160;11.428;2023-12-14T09:34:33;9.13;;;6.40;;
45328;SDS011;72636;48.160;11.428;2023-12-14T09:36:59;7.37;;;6.47;;
45328;SDS011;72636;48.160;11.428;2023-12-14T09:39:24;7.50;;;6.43;;
45328;SDS011;72636;48.160;11.428;2023-12-14T09:41:50;9.17;;;7.00;;
45328;SDS011;72636;48.160;11.428;2023-12-14T09:44:16;8.57;;;6.47;;
45328;SDS011;72636;48.160;11.428;2023-12-14T09:46:42;7.90;;;6.83;;
45328;SDS011;72636;48.160;11.428;2023-12-14T09:49:14;8.10;;;6.90;;
45328;SDS011;72636;48.160;11.428;2023-12-14T09:51:40;7.97;;;6.68;;
45328;SDS011;72636;48.160;11.428;2023-12-14T09:54:06;6.00;;;5.40;;
45328;SDS011;72636;48.160;11.428;2023-12-14T09:56:32;6.67;;;5.13;;
45328;SDS011;72636;48.160;11.428;2023-12-14T09:58:57;6.57;;;5.47;;
45328;SDS011;72636;48.160;11.428;2023-12-14T10:01:26;6.35;;;4.60;;
45328;SDS011;72636;48.160;11.428;2023-12-14T10:04:12;5.60;;;4.80;;
45328;SDS011;72636;48.160;11.428;2023-12-14T10:06:38;6.07;;;4.97;;
45328;SDS011;72636;48.160;11.428;2023-12-14T10:09:05;5.88;;;4.53;;
45328;SDS011;72636;48.160;11.428;2023-12-14T10:11:51;5.97;;;4.53;;
45328;SDS011;72636;48.160;11.428;2023-12-14T10:14:34;4.53;;;4.13;;
45328;SDS011;72636;48.160;11.428;2023-12-14T10:17:13;6.80;;;4.05;;
45328;SDS011;72636;48.160;11.428;2023-12-14T10:19:42;4.53;;;4.13;;
45328;SDS011;72636;48.160;11.428;2023-12-14T10:22:09;4.93;;;4.22;;
45328;SDS011;72636;48.160;11.428;2023-12-14T10:24:35;7.03;;;5.10;;
45328;SDS011;72636;48.160;11.428;2023-12-14T10:27:04;5.90;;;4.80;;
45328;SDS011;72636;48.160;11.428;2023-12-14T10:29:32;5.63;;;4.47;;
45328;SDS011;72636;48.160;11.428;2023-12-14T10:32:00;5.57;;;4.93;;
45328;SDS011;72636;48.160;11.428;2023-12-14T10:34:29;8.57;;;5.30;;
45328;SDS011;72636;48.160;11.428;2023-12-14T10:36:54;5.90;;;4.90;;
45328;SDS011;72636;48.160;11.428;2023-12-14T10:39:20;7.57;;;5.32;;
45328;SDS011;72636;48.160;11.428;2023-12-14T10:41:46;6.45;;;5.35;;
45328;SDS011;72636;48.160;11.428;2023-12-14T10:44:15;6.40;;;5.07;;
45328;SDS011;72636;48.160;11.428;2023-12-14T10:46:42;7.90;;;5.25;;
45328;SDS011;72636;48.160;11.428;2023-12-14T10:49:08;6.78;;;5.00;;
45328;SDS011;72636;48.160;11.428;2023-12-14T10:51:35;7.35;;;5.10;;
45328;SDS011;72636;48.160;11.428;2023-12-14T10:54:02;6.90;;;5.30;;
45328;SDS011;72636;48.160;11.428;2023-12-14T10:56:29;7.28;;;5.00;;
45328;SDS011;72636;48.160;11.428;2023-12-14T10:58:56;5.38;;;4.60;;
45328;SDS011;72636;48.160;11.428;2023-12-14T11:01:23;6.63;;;4.43;;
45328;SDS011;72636;48.160;11.428;2023-12-14T11:03:50;5.57;;;5.03;;
45328;SDS011;72636;48.160;11.428;2023-12-14T11:08:58;6.55;;;4.10;;
45328;SDS011;72636;48.160;11.428;2023-12-14T11:11:30;4.75;;;3.78;;
45328;SDS011;72636;48.160;11.428;2023-12-14T11:14:10;4.72;;;3.85;;
45328;SDS011;72636;48.160;11.428;2023-12-14T11:16:37;5.03;;;3.38;;
45328;SDS011;72636;48.160;11.428;2023-12-14T11:21:47;2.90;;;2.70;;
45328;SDS011;72636;48.160;11.428;2023-12-14T11:24:21;4.40;;;2.58;;
45328;SDS011;72636;48.160;11.428;2023-12-14T11:26:51;2.90;;;2.50;;
45328;SDS011;72636;48.160;11.428;2023-12-14T11:29:19;3.47;;;2.45;;
45328;SDS011;72636;48.160;11.428;2023-12-14T11:31:46;2.45;;;2.05;;
45328;SDS011;72636;48.160;11.428;2023-12-14T11:34:14;3.43;;;2.10;;
45328;SDS011;72636;48.160;11.428;2023-12-14T11:36:40;1.95;;;1.75;;
45328;SDS011;72636;48.160;11.428;2023-12-14T11:39:09;2.25;;;1.85;;
45328;SDS011;72636;48.160;11.428;2023-12-14T11:41:36;2.40;;;1.85;;
45328;SDS011;72636;48.160;11.428;2023-12-14T11:44:03;2.00;;;1.80;;
45328;SDS011;72636;48.160;11.428;2023-12-14T11:46:29;3.15;;;1.70;;
45328;SDS011;72636;48.160;11.428;2023-12-14T11:48:58;2.38;;;1.65;;
45328;SDS011;72636;48.160;11.428;2023-12-14T11:51:28;1.60;;;1.50;;
45328;SDS011;72636;48.160;11.428;2023-12-14T11:53:56;2.05;;;1.40;;
45328;SDS011;72636;48.160;11.428;2023-12-14T11:56:25;1.63;;;1.27;;
45328;SDS011;72636;48.160;11.428;2023-12-14T11:58:51;3.22;;;1.55;;
45328;SDS011;72636;48.160;11.428;2023-12-14T12:01:18;3.83;;;1.60;;
45328;SDS011;72636;48.160;11.428;2023-12-14T12:03:46;2.05;;;1.30;;
45328;SDS011;72636;48.160;11.428;2023-12-14T12:06:22;1.30;;;1.20;;
45328;SDS011;72636;48.160;11.428;2023-12-14T12:08:49;5.07;;;1.20;;
45328;SDS011;72636;48.160;11.428;2023-12-14T12:11:18;2.25;;;1.20;;
45328;SDS011;72636;48.160;11.428;2023-12-14T12:13:55;2.03;;;1.20;;
45328;SDS011;72636;48.160;11.428;2023-12-14T12:16:22;1.95;;;1.50;;
45328;SDS011;72636;48.160;11.428;2023-12-14T12:18:48;2.85;;;1.40;;
45328;SDS011;72636;48.160;11.428;2023-12-14T12:21:15;1.40;;;1.13;;
45328;SDS011;72636;48.160;11.428;2023-12-14T12:23:41;3.97;;;1.50;;
45328;SDS011;72636;48.160;11.428;2023-12-14T12:26:07;2.72;;;1.50;;
45328;SDS011;72636;48.160;11.428;2023-12-14T12:28:33;4.15;;;1.70;;
45328;SDS011;72636;48.160;11.428;2023-12-14T12:30:58;3.00;;;1.70;;
45328;SDS011;72636;48.160;11.428;2023-12-14T12:33:25;3.03;;;1.50;;
45328;SDS011;72636;48.160;11.428;2023-12-14T12:35:51;5.10;;;1.50;;
45328;SDS011;72636;48.160;11.428;2023-12-14T12:38:17;4.53;;;1.50;;
45328;SDS011;72636;48.160;11.428;2023-12-14T12:40:44;3.30;;;1.58;;
45328;SDS011;72636;48.160;11.428;2023-12-14T12:43:10;3.55;;;1.50;;
45328;SDS011;72636;48.160;11.428;2023-12-14T12:45:36;1.75;;;1.45;;
45328;SDS011;72636;48.160;11.428;2023-12-14T12:48:02;3.15;;;1.58;;
45328;SDS011;72636;48.160;11.428;2023-12-14T12:50:29;2.17;;;1.58;;
45328;SDS011;72636;48.160;11.428;2023-12-14T12:52:55;3.28;;;1.80;;
45328;SDS011;72636;48.160;11.428;2023-12-14T12:55:21;3.42;;;1.60;;
45328;SDS011;72636;48.160;11.428;2023-12-14T12:57:47;2.00;;;1.55;;
45328;SDS011;72636;48.160;11.428;2023-12-14T13:00:14;2.58;;;1.50;;
45328;SDS011;72636;48.160;11.428;2023-12-14T13:05:06;2.72;;;2.03;;
45328;SDS011;72636;48.160;11.428;2023-12-14T13:07:33;7.15;;;2.08;;
45328;SDS011;72636;48.160;11.428;2023-12-14T13:09:59;2.42;;;1.65;;
45328;SDS011;72636;48.160;11.428;2023-12-14T13:12:25;2.90;;;1.73;;
45328;SDS011;72636;48.160;11.428;2023-12-14T13:14:51;4.10;;;1.90;;
45328;SDS011;72636;48.160;11.428;2023-12-14T13:17:17;2.20;;;1.73;;
45328;SDS011;72636;48.160;11.428;2023-12-14T13:19:43;2.78;;;1.90;;
45328;SDS011;72636;48.160;11.428;2023-12-14T13:22:09;3.38;;;1.90;;
45328;SDS011;72636;48.160;11.428;2023-12-14T13:24:36;2.20;;;2.00;;
45328;SDS011;72636;48.160;11.428;2023-12-14T13:27:03;5.43;;;2.22;;
45328;SDS011;72636;48.160;11.428;2023-12-14T13:29:29;3.00;;;2.20;;
45328;SDS011;72636;48.160;11.428;2023-12-14T13:31:57;5.10;;;1.98;;
45328;SDS011;72636;48.160;11.428;2023-12-14T13:34:24;2.63;;;2.40;;
45328;SDS011;72636;48.160;11.428;2023-12-14T13:36:50;3.00;;;2.03;;
45328;SDS011;72636;48.160;11.428;2023-12-14T13:39:16;6.45;;;2.38;;
45328;SDS011;72636;48.160;11.428;2023-12-14T13:41:41;4.70;;;2.20;;
45328;SDS011;72636;48.160;11.428;2023-12-14T13:44:07;2.13;;;1.90;;
45328;SDS011;72636;48.160;11.428;2023-12-14T13:46:32;2.47;;;2.03;;
45328;SDS011;72636;48.160;11.428;2023-12-14T13:48:58;5.00;;;2.43;;
45328;SDS011;72636;48.160;11.428;2023-12-14T13:51:24;4.07;;;2.20;;
45328;SDS011;72636;48.160;11.428;2023-12-14T13:53:50;2.20;;;2.00;;
45328;SDS011;72636;48.160;11.428;2023-12-14T13:56:16;2.57;;;2.10;;
45328;SDS011;72636;48.160;11.428;2023-12-14T13:58:41;4.53;;;2.10;;
45328;SDS011;72636;48.160;11.428;2023-12-14T14:01:07;2.87;;;2.03;;
45328;SDS011;72636;48.160;11.428;2023-12-14T14:03:33;3.27;;;2.00;;
45328;SDS011;72636;48.160;11.428;2023-12-14T14:06:00;2.95;;;2.08;;
45328;SDS011;72636;48.160;11.428;2023-12-14T14:08:27;4.30;;;2.60;;
45328;SDS011;72636;48.160;11.428;2023-12-14T14:10:53;5.07;;;2.65;;
45328;SDS011;72636;48.160;11.428;2023-12-14T14:13:19;3.07;;;2.10;;
45328;SDS011;72636;48.160;11.428;2023-12-14T14:15:46;4.60;;;2.53;;
45328;SDS011;72636;48.160;11.428;2023-12-14T14:18:12;4.25;;;2.42;;
45328;SDS011;72636;48.160;11.428;2023-12-14T14:20:38;2.92;;;2.53;;
45328;SDS011;72636;48.160;11.428;2023-12-14T14:23:04;2.70;;;2.20;;
45328;SDS011;72636;48.160;11.428;2023-12-14T14:25:29;4.60;;;2.30;;
45328;SDS011;72636;48.160;11.428;2023-12-14T14:27:55;4.80;;;2.37;;
45328;SDS011;72636;48.160;11.428;2023-12-14T14:30:21;3.55;;;2.40;;
45328;SDS011;72636;48.160;11.428;2023-12-14T14:32:46;3.13;;;2.23;;
45328;SDS011;72636;48.160;11.428;2023-12-14T14:35:12;3.90;;;2.50;;
45328;SDS011;72636;48.160;11.428;2023-12-14T14:37:38;6.28;;;2.08;;
45328;SDS011;72636;48.160;11.428;2023-12-14T14:40:05;4.80;;;2.60;;
45328;SDS011;72636;48.160;11.428;2023-12-14T14:42:31;3.15;;;2.67;;
45328;SDS011;72636;48.160;11.428;2023-12-14T14:44:57;4.18;;;2.28;;